Time;durP1;ratioP1;P1;durP2;ratioP2;P2;SDS_P1;SDS_P2;PMS_P1;PMS_P2;Temp;Humidity;BMP_temperature;BMP_pressure;BME280_temperature;BME280_humidity;BME280_pressure;Samples;Min_cycle;Max_cycle;Signal;HPM_P1;HPM_P2
2023/08/30 05:46:39;;;;;;;0.60;0.60;;;;;;;;;;6310535;22;20443;-82
2023/08/30 05:49:05;;;;;;;0.73;0.73;;;;;;;;;;6372204;22;20014;-81
2023/08/30 05:51:30;;;;;;;1.23;0.70;;;;;;;;;;6372465;22;20317;-82
2023/08/30 05:53:56;;;;;;;1.10;0.60;;;;;;;;;;6372367;22;19998;-82
2023/08/30 05:56:21;;;;;;;0.80;0.80;;;;;;;;;;6365499;22;20003;-82
2023/08/30 05:58:47;;;;;;;0.70;0.70;;;;;;;;;;6341082;22;20006;-82
2023/08/30 06:01:13;;;;;;;0.60;0.60;;;;;;;;;;6340750;22;20077;-86
2023/08/30 06:03:39;;;;;;;2.03;0.70;;;;;;;;;;6340734;22;20024;-84
2023/08/30 06:06:04;;;;;;;0.60;0.60;;;;;;;;;;6340852;22;20448;-82
2023/08/30 06:08:30;;;;;;;0.82;0.70;;;;;;;;;;6339698;22;20052;-85
2023/08/30 06:10:55;;;;;;;2.08;0.50;;;;;;;;;;6312976;22;20007;-84
2023/08/30 06:13:23;;;;;;;0.75;0.75;;;;;;;;;;6340524;22;19998;-83
2023/08/30 06:15:51;;;;;;;2.67;1.15;;;;;;;;;;6313407;22;20007;-82
2023/08/30 09:36:22;;;;;;;2.05;0.80;;;;;;;;;;6301699;22;20039;-83
2023/08/30 09:38:49;;;;;;;0.88;0.82;;;;;;;;;;6311325;22;20376;-81
2023/08/30 09:41:16;;;;;;;0.63;0.57;;;;;;;;;;6339148;22;20080;-81
2023/08/30 09:43:45;;;;;;;0.80;0.75;;;;;;;;;;6316339;22;20042;-83
2023/08/30 09:46:11;;;;;;;0.70;0.60;;;;;;;;;;6307213;22;20007;-83
2023/08/30 09:48:38;;;;;;;0.93;0.70;;;;;;;;;;6280376;22;20074;-84
2023/08/30 09:51:07;;;;;;;3.67;0.80;;;;;;;;;;6307866;22;20056;-83
2023/08/30 09:53:37;;;;;;;1.48;1.27;;;;;;;;;;6307542;22;20090;-83
2023/08/30 09:56:04;;;;;;;2.65;0.60;;;;;;;;;;6309240;22;20007;-82
2023/08/30 09:58:30;;;;;;;1.10;0.70;;;;;;;;;;6309506;22;20369;-83
2023/08/30 10:00:56;;;;;;;0.65;0.65;;;;;;;;;;6309821;22;20061;-83
2023/08/30 10:03:22;;;;;;;1.17;0.77;;;;;;;;;;6309401;22;19999;-83
2023/08/30 10:05:47;;;;;;;0.60;0.60;;;;;;;;;;6282309;22;20334;-83
2023/08/30 10:08:14;;;;;;;0.70;0.70;;;;;;;;;;6309575;22;19991;-85
2023/08/30 10:10:40;;;;;;;0.60;0.60;;;;;;;;;;6309548;22;20046;-85
2023/08/30 10:13:06;;;;;;;1.35;0.50;;;;;;;;;;6309479;22;19999;-89
2023/08/30 10:15:35;;;;;;;0.80;0.70;;;;;;;;;;6256819;22;20014;-87
2023/08/30 10:18:02;;;;;;;;;;;;;;;;;;6282614;22;20007;-87
2023/08/30 10:20:28;;;;;;;2.95;0.90;;;;;;;;;;6282048;22;19907;-86
2023/08/30 10:22:56;;;;;;;1.80;0.50;;;;;;;;;;6281752;22;20006;-86
2023/08/30 10:25:26;;;;;;;0.60;0.60;;;;;;;;;;6308758;22;20011;-88
2023/08/30 10:27:53;;;;;;;0.90;0.90;;;;;;;;;;6281603;22;20018;-82
2023/08/30 10:30:21;;;;;;;0.77;0.70;;;;;;;;;;6308851;22;20074;-85
2023/08/30 10:32:47;;;;;;;0.77;0.70;;;;;;;;;;6309059;22;20044;-86
2023/08/30 10:35:14;;;;;;;0.50;0.50;;;;;;;;;;6309217;22;20003;-85
2023/08/30 10:37:40;;;;;;;0.50;0.50;;;;;;;;;;6309073;22;20017;-86
2023/08/30 10:40:06;;;;;;;0.65;0.65;;;;;;;;;;6309087;22;20015;-87
2023/08/30 10:42:32;;;;;;;1.60;0.80;;;;;;;;;;6309479;22;20007;-88
2023/08/30 10:45:04;;;;;;;0.80;0.80;;;;;;;;;;6309651;22;20006;-89
2023/08/30 10:47:38;;;;;;;0.70;0.70;;;;;;;;;;6282092;22;20185;-88
2023/08/30 10:50:11;;;;;;;1.30;0.70;;;;;;;;;;6309155;22;20070;-85
2023/08/30 10:52:37;;;;;;;1.95;0.73;;;;;;;;;;6309228;22;20026;-89
2023/08/30 10:55:10;;;;;;;1.05;0.60;;;;;;;;;;6309252;22;20003;-87
2023/08/30 10:57:37;;;;;;;1.75;0.80;;;;;;;;;;6309180;22;20003;-87
2023/08/30 11:00:11;;;;;;;0.73;0.73;;;;;;;;;;6281937;22;20007;-87
2023/08/30 11:02:37;;;;;;;2.78;1.23;;;;;;;;;;6281933;22;20082;-86
2023/08/30 11:05:06;;;;;;;0.95;0.80;;;;;;;;;;6308888;22;20427;-79
2023/08/30 11:07:31;;;;;;;2.20;0.80;;;;;;;;;;6308802;22;20041;-79
2023/08/30 11:09:58;;;;;;;1.30;0.85;;;;;;;;;;6309176;22;20373;-82
2023/08/30 11:12:25;;;;;;;2.13;0.90;;;;;;;;;;6281509;22;20441;-79
2023/08/30 11:14:52;;;;;;;2.83;0.90;;;;;;;;;;6309219;22;20013;-83
2023/08/30 11:17:18;;;;;;;1.15;0.90;;;;;;;;;;6308968;22;19999;-82
2023/08/30 11:19:44;;;;;;;2.28;1.13;;;;;;;;;;6308970;22;20112;-82
2023/08/30 11:22:10;;;;;;;0.95;0.80;;;;;;;;;;6309250;22;20031;-85
2023/08/30 11:24:35;;;;;;;0.60;0.60;;;;;;;;;;6309294;22;20006;-87
2023/08/30 11:27:01;;;;;;;0.60;0.60;;;;;;;;;;6309038;22;20007;-83
2023/08/30 11:29:27;;;;;;;0.63;0.63;;;;;;;;;;6309035;22;20471;-82
2023/08/30 11:31:53;;;;;;;1.00;0.65;;;;;;;;;;6308985;22;20010;-83
2023/08/30 11:34:22;;;;;;;0.60;0.60;;;;;;;;;;6308505;22;20053;-83
2023/08/30 11:36:49;;;;;;;2.05;0.60;;;;;;;;;;6281090;22;20023;-84
2023/08/30 11:39:16;;;;;;;0.73;0.63;;;;;;;;;;6308648;22;20414;-84
2023/08/30 11:41:42;;;;;;;0.70;0.70;;;;;;;;;;6308935;22;20014;-84
2023/08/30 11:44:08;;;;;;;0.52;0.52;;;;;;;;;;6281184;22;20003;-83
2023/08/30 11:46:35;;;;;;;0.88;0.88;;;;;;;;;;6281257;22;20026;-83
2023/08/30 16:26:25;;;;;;;3.33;1.20;;;;;;;;;;6309138;22;20003;-82
2023/08/30 16:28:50;;;;;;;0.90;0.90;;;;;;;;;;6339566;22;20366;-83
2023/08/30 16:31:17;;;;;;;1.10;1.00;;;;;;;;;;6337920;22;20002;-83
2023/08/30 16:33:42;;;;;;;1.70;1.15;;;;;;;;;;6311492;22;20022;-83
2023/08/30 16:36:08;;;;;;;1.20;0.90;;;;;;;;;;6308427;22;20061;-82
2023/08/30 16:38:34;;;;;;;1.70;1.30;;;;;;;;;;6308223;22;20410;-83
2023/08/30 16:41:03;;;;;;;1.92;1.20;;;;;;;;;;6308099;22;20000;-84
2023/08/30 16:43:30;;;;;;;1.38;0.98;;;;;;;;;;6307993;22;20490;-82
2023/08/30 16:45:57;;;;;;;1.77;0.88;;;;;;;;;;6306469;22;20046;-81
2023/08/30 16:48:25;;;;;;;1.20;1.00;;;;;;;;;;6306561;22;20023;-83
2023/08/30 16:50:51;;;;;;;1.50;1.10;;;;;;;;;;6308208;22;20078;-82
2023/08/30 16:53:16;;;;;;;1.02;0.90;;;;;;;;;;6307843;22;20408;-80
2023/08/30 16:55:42;;;;;;;0.90;0.90;;;;;;;;;;6308145;22;20004;-80
2023/08/30 16:58:07;;;;;;;2.55;1.00;;;;;;;;;;6307587;22;20057;-81
2023/08/30 17:00:33;;;;;;;1.08;1.02;;;;;;;;;;6308007;22;20483;-79
2023/08/30 17:02:59;;;;;;;1.10;0.93;;;;;;;;;;6308215;22;20457;-81
2023/08/30 17:05:25;;;;;;;2.97;1.33;;;;;;;;;;6311429;22;19999;-82
2023/08/30 17:07:52;;;;;;;7.32;2.25;;;;;;;;;;6311397;22;20010;-82
2023/08/30 17:10:18;;;;;;;7.78;4.05;;;;;;;;;;6311405;22;20000;-82
2023/08/30 17:12:43;;;;;;;3.05;2.13;;;;;;;;;;6311479;22;20082;-82
2023/08/30 17:15:09;;;;;;;2.35;1.60;;;;;;;;;;6311500;22;19999;-82
2023/08/30 17:17:34;;;;;;;1.98;1.20;;;;;;;;;;6311582;22;20003;-82
2023/08/30 17:20:00;;;;;;;1.52;1.00;;;;;;;;;;6311564;22;19999;-83
2023/08/30 17:22:25;;;;;;;2.40;1.38;;;;;;;;;;6311509;22;20003;-83
2023/08/30 17:24:51;;;;;;;1.33;1.15;;;;;;;;;;6311545;22;20003;-83
2023/08/30 17:27:17;;;;;;;1.83;1.15;;;;;;;;;;6337268;22;20015;-83
2023/08/30 17:29:42;;;;;;;1.25;1.15;;;;;;;;;;6342484;22;20007;-82
2023/08/30 17:32:08;;;;;;;1.95;1.00;;;;;;;;;;6342617;22;20417;-80
2023/08/30 17:34:33;;;;;;;1.65;1.10;;;;;;;;;;6342801;22;20010;-83
2023/08/30 22:32:30;;;;;;;1.52;1.05;;;;;;;;;;6350269;22;20089;-84
2023/08/30 22:34:58;;;;;;;2.35;1.10;;;;;;;;;;6340504;22;20007;-82
